Terminal Aerodrome Forecast
Issued by NWS Twin Cities, MN

Home | Current Version | Previous Version | Graphics & Text | Print | Product List | Glossary On
Versions: 1 2 3 4 5 6 7 8 9 10 11 12 13 14 15 16 17 18 19 20
000
FTUS43 KMPX 171120
TAFSTC
TAF
KSTC 171120Z 1712/1812 25009KT P6SM FEW020
     FM171600 29011KT P6SM SKC
     FM180000 VRB03KT P6SM SCT150
     FM180800 15003KT P6SM BKN110=

USA.gov is the U.S. government's official web portal to all federal, state and local government web resources and services.